sensor_id;sensor_type;location;lat;lon;timestamp;temperature;humidity
4701;DHT22;8724;51.272;6.554;2022-09-17T00:01:41;14.30;99.90
4701;DHT22;8724;51.272;6.554;2022-09-17T00:04:09;14.30;99.90
4701;DHT22;8724;51.272;6.554;2022-09-17T00:06:38;14.30;99.90
4701;DHT22;8724;51.272;6.554;2022-09-17T00:09:08;14.20;99.90
4701;DHT22;8724;51.272;6.554;2022-09-17T00:11:38;14.30;99.90
4701;DHT22;8724;51.272;6.554;2022-09-17T00:14:09;14.30;99.90
4701;DHT22;8724;51.272;6.554;2022-09-17T00:16:42;14.20;99.90
4701;DHT22;8724;51.272;6.554;2022-09-17T00:19:20;14.30;99.90
4701;DHT22;8724;51.272;6.554;2022-09-17T00:21:49;14.30;99.90
4701;DHT22;8724;51.272;6.554;2022-09-17T00:24:22;14.20;99.90
4701;DHT22;8724;51.272;6.554;2022-09-17T00:27:09;14.30;99.90
4701;DHT22;8724;51.272;6.554;2022-09-17T00:29:56;14.20;99.90
4701;DHT22;8724;51.272;6.554;2022-09-17T00:32:43;14.30;99.90
4701;DHT22;8724;51.272;6.554;2022-09-17T00:35:29;14.30;99.90
4701;DHT22;8724;51.272;6.554;2022-09-17T00:38:16;14.20;99.90
4701;DHT22;8724;51.272;6.554;2022-09-17T00:41:05;14.30;99.90
4701;DHT22;8724;51.272;6.554;2022-09-17T00:43:53;14.30;99.90
4701;DHT22;8724;51.272;6.554;2022-09-17T00:46:42;14.20;99.90
4701;DHT22;8724;51.272;6.554;2022-09-17T00:49:30;14.20;99.90
4701;DHT22;8724;51.272;6.554;2022-09-17T00:52:20;14.20;99.90
4701;DHT22;8724;51.272;6.554;2022-09-17T00:55:12;13.80;99.90
4701;DHT22;8724;51.272;6.554;2022-09-17T00:58:02;14.10;99.90
4701;DHT22;8724;51.272;6.554;2022-09-17T01:00:54;14.10;99.90
4701;DHT22;8724;51.272;6.554;2022-09-17T01:03:41;14.10;99.90
4701;DHT22;8724;51.272;6.554;2022-09-17T01:06:33;14.10;99.90
4701;DHT22;8724;51.272;6.554;2022-09-17T01:09:28;14.10;99.90
4701;DHT22;8724;51.272;6.554;2022-09-17T01:12:34;14.10;99.90
4701;DHT22;8724;51.272;6.554;2022-09-17T01:15:31;14.00;99.90
4701;DHT22;8724;51.272;6.554;2022-09-17T01:18:41;13.90;99.90
4701;DHT22;8724;51.272;6.554;2022-09-17T01:21:45;14.00;99.90
4701;DHT22;8724;51.272;6.554;2022-09-17T01:24:45;14.00;99.90
4701;DHT22;8724;51.272;6.554;2022-09-17T01:31:20;14.00;99.90
4701;DHT22;8724;51.272;6.554;2022-09-17T01:34:15;14.00;99.90
4701;DHT22;8724;51.272;6.554;2022-09-17T01:37:08;13.90;99.90
4701;DHT22;8724;51.272;6.554;2022-09-17T01:40:02;13.90;99.90
4701;DHT22;8724;51.272;6.554;2022-09-17T01:42:56;14.30;99.90
4701;DHT22;8724;51.272;6.554;2022-09-17T01:45:48;13.90;99.90
4701;DHT22;8724;51.272;6.554;2022-09-17T01:48:39;13.90;99.90
4701;DHT22;8724;51.272;6.554;2022-09-17T01:51:34;13.90;99.90
4701;DHT22;8724;51.272;6.554;2022-09-17T01:54:25;14.00;99.90
4701;DHT22;8724;51.272;6.554;2022-09-17T01:57:15;14.10;99.90
4701;DHT22;8724;51.272;6.554;2022-09-17T02:00:06;13.90;99.90
4701;DHT22;8724;51.272;6.554;2022-09-17T02:02:59;13.90;99.90
4701;DHT22;8724;51.272;6.554;2022-09-17T02:05:52;14.00;99.90
4701;DHT22;8724;51.272;6.554;2022-09-17T02:08:44;14.00;99.90
4701;DHT22;8724;51.272;6.554;2022-09-17T02:11:34;14.00;99.90
4701;DHT22;8724;51.272;6.554;2022-09-17T02:14:24;13.90;99.90
4701;DHT22;8724;51.272;6.554;2022-09-17T02:17:19;14.20;99.90
4701;DHT22;8724;51.272;6.554;2022-09-17T02:20:08;14.00;99.90
4701;DHT22;8724;51.272;6.554;2022-09-17T02:23:00;13.90;99.90
4701;DHT22;8724;51.272;6.554;2022-09-17T02:25:52;14.00;99.90
4701;DHT22;8724;51.272;6.554;2022-09-17T02:28:46;14.00;99.90
4701;DHT22;8724;51.272;6.554;2022-09-17T02:31:33;14.00;99.90
4701;DHT22;8724;51.272;6.554;2022-09-17T02:34:20;14.00;99.90
4701;DHT22;8724;51.272;6.554;2022-09-17T02:37:10;14.00;99.90
4701;DHT22;8724;51.272;6.554;2022-09-17T02:39:58;14.00;99.90
4701;DHT22;8724;51.272;6.554;2022-09-17T02:42:57;13.90;99.90
4701;DHT22;8724;51.272;6.554;2022-09-17T02:45:51;13.90;99.90
4701;DHT22;8724;51.272;6.554;2022-09-17T02:48:58;13.90;99.90
4701;DHT22;8724;51.272;6.554;2022-09-17T02:51:54;13.90;99.90
4701;DHT22;8724;51.272;6.554;2022-09-17T02:54:52;13.90;99.90
4701;DHT22;8724;51.272;6.554;2022-09-17T02:57:54;13.90;99.90
4701;DHT22;8724;51.272;6.554;2022-09-17T03:00:45;14.20;99.90
4701;DHT22;8724;51.272;6.554;2022-09-17T03:03:36;13.90;99.90
4701;DHT22;8724;51.272;6.554;2022-09-17T03:06:24;13.80;99.90
4701;DHT22;8724;51.272;6.554;2022-09-17T03:09:12;13.80;99.90
4701;DHT22;8724;51.272;6.554;2022-09-17T03:11:59;13.80;99.90
4701;DHT22;8724;51.272;6.554;2022-09-17T03:14:48;13.80;99.90
4701;DHT22;8724;51.272;6.554;2022-09-17T03:17:35;13.70;99.90
4701;DHT22;8724;51.272;6.554;2022-09-17T03:20:22;13.70;99.90
4701;DHT22;8724;51.272;6.554;2022-09-17T03:23:09;13.70;99.90
4701;DHT22;8724;51.272;6.554;2022-09-17T03:25:59;13.70;99.90
4701;DHT22;8724;51.272;6.554;2022-09-17T03:28:46;13.70;99.90
4701;DHT22;8724;51.272;6.554;2022-09-17T03:31:34;13.60;99.90
4701;DHT22;8724;51.272;6.554;2022-09-17T03:34:21;13.60;99.90
4701;DHT22;8724;51.272;6.554;2022-09-17T03:37:08;13.60;99.90
4701;DHT22;8724;51.272;6.554;2022-09-17T03:39:54;13.70;99.90
4701;DHT22;8724;51.272;6.554;2022-09-17T03:42:43;13.60;99.90
4701;DHT22;8724;51.272;6.554;2022-09-17T03:45:31;13.60;99.90
4701;DHT22;8724;51.272;6.554;2022-09-17T03:48:19;13.60;99.90
4701;DHT22;8724;51.272;6.554;2022-09-17T03:51:06;13.60;99.90
4701;DHT22;8724;51.272;6.554;2022-09-17T03:53:52;13.90;99.90
4701;DHT22;8724;51.272;6.554;2022-09-17T03:56:42;13.60;99.90
4701;DHT22;8724;51.272;6.554;2022-09-17T03:59:31;13.60;99.90
4701;DHT22;8724;51.272;6.554;2022-09-17T04:02:21;13.60;99.90
4701;DHT22;8724;51.272;6.554;2022-09-17T04:05:16;13.60;99.90
4701;DHT22;8724;51.272;6.554;2022-09-17T04:08:12;13.60;99.90
4701;DHT22;8724;51.272;6.554;2022-09-17T04:11:05;13.60;99.90
4701;DHT22;8724;51.272;6.554;2022-09-17T04:14:00;13.60;99.90
4701;DHT22;8724;51.272;6.554;2022-09-17T04:16:48;13.60;99.90
4701;DHT22;8724;51.272;6.554;2022-09-17T04:19:36;13.60;99.90
4701;DHT22;8724;51.272;6.554;2022-09-17T04:22:31;13.60;99.90
4701;DHT22;8724;51.272;6.554;2022-09-17T04:25:26;13.50;99.90
4701;DHT22;8724;51.272;6.554;2022-09-17T04:28:00;13.50;99.90
4701;DHT22;8724;51.272;6.554;2022-09-17T04:30:34;13.60;99.90
4701;DHT22;8724;51.272;6.554;2022-09-17T04:33:12;13.60;99.90
4701;DHT22;8724;51.272;6.554;2022-09-17T04:35:45;13.60;99.90
4701;DHT22;8724;51.272;6.554;2022-09-17T04:38:22;13.60;99.90
4701;DHT22;8724;51.272;6.554;2022-09-17T04:40:54;13.50;99.90
4701;DHT22;8724;51.272;6.554;2022-09-17T04:43:28;13.60;99.90
4701;DHT22;8724;51.272;6.554;2022-09-17T04:46:05;13.60;99.90
4701;DHT22;8724;51.272;6.554;2022-09-17T04:48:37;13.50;99.90
4701;DHT22;8724;51.272;6.554;2022-09-17T04:51:06;13.60;99.90
4701;DHT22;8724;51.272;6.554;2022-09-17T04:53:41;13.60;99.90
4701;DHT22;8724;51.272;6.554;2022-09-17T04:56:14;13.60;99.90
4701;DHT22;8724;51.272;6.554;2022-09-17T04:58:47;13.60;99.90
4701;DHT22;8724;51.272;6.554;2022-09-17T05:01:18;13.80;99.90
4701;DHT22;8724;51.272;6.554;2022-09-17T05:03:49;13.60;99.90
4701;DHT22;8724;51.272;6.554;2022-09-17T05:06:20;13.60;99.90
4701;DHT22;8724;51.272;6.554;2022-09-17T05:08:56;13.60;99.90
4701;DHT22;8724;51.272;6.554;2022-09-17T05:11:25;13.60;99.90
4701;DHT22;8724;51.272;6.554;2022-09-17T05:13:58;13.60;99.90
4701;DHT22;8724;51.272;6.554;2022-09-17T05:16:27;13.50;99.90
4701;DHT22;8724;51.272;6.554;2022-09-17T05:19:02;13.50;99.90
4701;DHT22;8724;51.272;6.554;2022-09-17T05:21:35;13.50;99.90
4701;DHT22;8724;51.272;6.554;2022-09-17T05:24:05;13.50;99.90
4701;DHT22;8724;51.272;6.554;2022-09-17T05:26:33;13.50;99.90
4701;DHT22;8724;51.272;6.554;2022-09-17T05:29:03;13.60;99.90
4701;DHT22;8724;51.272;6.554;2022-09-17T05:31:31;13.50;99.90
4701;DHT22;8724;51.272;6.554;2022-09-17T05:33:59;13.50;99.90
4701;DHT22;8724;51.272;6.554;2022-09-17T05:36:28;13.50;99.90
4701;DHT22;8724;51.272;6.554;2022-09-17T05:38:56;13.50;99.90
4701;DHT22;8724;51.272;6.554;2022-09-17T05:41:26;13.50;99.90
4701;DHT22;8724;51.272;6.554;2022-09-17T05:43:54;13.50;99.90
4701;DHT22;8724;51.272;6.554;2022-09-17T05:46:22;13.50;99.90
4701;DHT22;8724;51.272;6.554;2022-09-17T05:48:54;13.50;99.90
4701;DHT22;8724;51.272;6.554;2022-09-17T05:51:23;13.50;99.90
4701;DHT22;8724;51.272;6.554;2022-09-17T05:53:53;13.50;99.90
4701;DHT22;8724;51.272;6.554;2022-09-17T05:56:22;13.50;99.90
4701;DHT22;8724;51.272;6.554;2022-09-17T05:58:55;13.50;99.90
4701;DHT22;8724;51.272;6.554;2022-09-17T06:01:27;13.50;99.90
4701;DHT22;8724;51.272;6.554;2022-09-17T06:03:55;13.50;99.90
4701;DHT22;8724;51.272;6.554;2022-09-17T06:06:26;13.60;99.90
4701;DHT22;8724;51.272;6.554;2022-09-17T06:08:57;13.50;99.90
4701;DHT22;8724;51.272;6.554;2022-09-17T06:11:26;13.60;99.90
4701;DHT22;8724;51.272;6.554;2022-09-17T06:13:55;13.50;99.90
4701;DHT22;8724;51.272;6.554;2022-09-17T06:16:27;13.50;99.90
4701;DHT22;8724;51.272;6.554;2022-09-17T06:18:55;13.50;99.90
4701;DHT22;8724;51.272;6.554;2022-09-17T06:21:23;13.50;99.90
4701;DHT22;8724;51.272;6.554;2022-09-17T06:23:52;13.50;99.90
4701;DHT22;8724;51.272;6.554;2022-09-17T06:26:20;13.50;99.90
4701;DHT22;8724;51.272;6.554;2022-09-17T06:28:48;13.50;99.90
4701;DHT22;8724;51.272;6.554;2022-09-17T06:31:18;13.40;99.90
4701;DHT22;8724;51.272;6.554;2022-09-17T06:33:46;13.50;99.90
4701;DHT22;8724;51.272;6.554;2022-09-17T06:36:15;13.50;99.90
4701;DHT22;8724;51.272;6.554;2022-09-17T06:38:44;13.50;99.90
4701;DHT22;8724;51.272;6.554;2022-09-17T06:41:12;13.50;99.90
4701;DHT22;8724;51.272;6.554;2022-09-17T06:43:43;13.50;99.90
4701;DHT22;8724;51.272;6.554;2022-09-17T06:46:11;13.50;99.90
4701;DHT22;8724;51.272;6.554;2022-09-17T06:48:41;13.50;99.90
4701;DHT22;8724;51.272;6.554;2022-09-17T06:51:10;13.50;99.90
4701;DHT22;8724;51.272;6.554;2022-09-17T06:53:39;13.50;99.90
4701;DHT22;8724;51.272;6.554;2022-09-17T06:56:08;13.50;99.90
4701;DHT22;8724;51.272;6.554;2022-09-17T06:58:37;13.90;99.90
4701;DHT22;8724;51.272;6.554;2022-09-17T07:01:08;13.60;99.90
4701;DHT22;8724;51.272;6.554;2022-09-17T07:03:37;13.60;99.90
4701;DHT22;8724;51.272;6.554;2022-09-17T07:06:08;13.60;99.90
4701;DHT22;8724;51.272;6.554;2022-09-17T07:08:37;13.60;99.90
4701;DHT22;8724;51.272;6.554;2022-09-17T07:11:06;13.90;99.90
4701;DHT22;8724;51.272;6.554;2022-09-17T07:13:34;13.60;99.90
4701;DHT22;8724;51.272;6.554;2022-09-17T07:16:05;13.60;99.90
4701;DHT22;8724;51.272;6.554;2022-09-17T07:18:33;13.70;99.90
4701;DHT22;8724;51.272;6.554;2022-09-17T07:21:04;13.70;99.90
4701;DHT22;8724;51.272;6.554;2022-09-17T07:23:36;13.70;99.90
4701;DHT22;8724;51.272;6.554;2022-09-17T07:26:06;13.70;99.90
4701;DHT22;8724;51.272;6.554;2022-09-17T07:28:37;13.90;99.90
4701;DHT22;8724;51.272;6.554;2022-09-17T07:31:06;13.70;99.90
4701;DHT22;8724;51.272;6.554;2022-09-17T07:33:42;13.70;99.90
4701;DHT22;8724;51.272;6.554;2022-09-17T07:36:12;14.10;99.90
4701;DHT22;8724;51.272;6.554;2022-09-17T07:38:42;13.70;99.90
4701;DHT22;8724;51.272;6.554;2022-09-17T07:41:12;13.70;99.90
4701;DHT22;8724;51.272;6.554;2022-09-17T07:43:40;13.70;99.90
4701;DHT22;8724;51.272;6.554;2022-09-17T07:46:13;13.70;99.90
4701;DHT22;8724;51.272;6.554;2022-09-17T07:48:42;13.70;99.90
4701;DHT22;8724;51.272;6.554;2022-09-17T07:51:14;13.50;99.90
4701;DHT22;8724;51.272;6.554;2022-09-17T07:53:45;13.70;99.90
4701;DHT22;8724;51.272;6.554;2022-09-17T07:56:13;13.70;99.90
4701;DHT22;8724;51.272;6.554;2022-09-17T07:58:42;13.70;99.90
4701;DHT22;8724;51.272;6.554;2022-09-17T08:01:11;13.80;99.90
4701;DHT22;8724;51.272;6.554;2022-09-17T08:03:41;13.80;99.90
4701;DHT22;8724;51.272;6.554;2022-09-17T08:06:12;13.80;99.90
4701;DHT22;8724;51.272;6.554;2022-09-17T08:08:41;13.80;99.90
4701;DHT22;8724;51.272;6.554;2022-09-17T08:11:13;13.80;99.90
4701;DHT22;8724;51.272;6.554;2022-09-17T08:13:58;13.80;99.90
4701;DHT22;8724;51.272;6.554;2022-09-17T08:16:27;13.80;99.90
4701;DHT22;8724;51.272;6.554;2022-09-17T08:18:57;13.90;99.90
4701;DHT22;8724;51.272;6.554;2022-09-17T08:21:25;13.90;99.90
4701;DHT22;8724;51.272;6.554;2022-09-17T08:23:53;13.90;99.90
4701;DHT22;8724;51.272;6.554;2022-09-17T08:26:23;13.90;99.90
4701;DHT22;8724;51.272;6.554;2022-09-17T08:28:53;14.30;99.90
4701;DHT22;8724;51.272;6.554;2022-09-17T08:31:23;13.90;99.90
4701;DHT22;8724;51.272;6.554;2022-09-17T08:33:52;14.20;99.90
4701;DHT22;8724;51.272;6.554;2022-09-17T08:36:21;13.90;99.90
4701;DHT22;8724;51.272;6.554;2022-09-17T08:38:52;13.90;99.90
4701;DHT22;8724;51.272;6.554;2022-09-17T08:41:29;13.90;99.90
4701;DHT22;8724;51.272;6.554;2022-09-17T08:44:08;13.90;99.90
4701;DHT22;8724;51.272;6.554;2022-09-17T08:46:45;14.00;99.90
4701;DHT22;8724;51.272;6.554;2022-09-17T08:49:23;13.90;99.90
4701;DHT22;8724;51.272;6.554;2022-09-17T08:52:07;14.00;99.90
4701;DHT22;8724;51.272;6.554;2022-09-17T08:54:43;14.00;99.90
4701;DHT22;8724;51.272;6.554;2022-09-17T08:57:19;14.00;99.90
4701;DHT22;8724;51.272;6.554;2022-09-17T08:59:57;14.00;99.90
4701;DHT22;8724;51.272;6.554;2022-09-17T09:02:41;14.00;99.90
4701;DHT22;8724;51.272;6.554;2022-09-17T09:05:15;14.10;99.90
4701;DHT22;8724;51.272;6.554;2022-09-17T09:07:48;14.10;99.90
4701;DHT22;8724;51.272;6.554;2022-09-17T09:10:22;14.10;99.90
4701;DHT22;8724;51.272;6.554;2022-09-17T09:12:54;14.10;99.90
4701;DHT22;8724;51.272;6.554;2022-09-17T09:15:31;14.10;99.90
4701;DHT22;8724;51.272;6.554;2022-09-17T09:18:03;14.40;99.90
4701;DHT22;8724;51.272;6.554;2022-09-17T09:20:42;14.10;99.90
4701;DHT22;8724;51.272;6.554;2022-09-17T09:23:17;14.40;99.90
4701;DHT22;8724;51.272;6.554;2022-09-17T09:25:56;14.20;99.90
4701;DHT22;8724;51.272;6.554;2022-09-17T09:28:47;14.20;99.90
4701;DHT22;8724;51.272;6.554;2022-09-17T09:31:35;14.20;99.90
4701;DHT22;8724;51.272;6.554;2022-09-17T09:34:06;14.30;99.90
4701;DHT22;8724;51.272;6.554;2022-09-17T09:36:37;14.20;99.90
4701;DHT22;8724;51.272;6.554;2022-09-17T09:39:13;14.30;99.90
4701;DHT22;8724;51.272;6.554;2022-09-17T09:41:44;14.30;99.90
4701;DHT22;8724;51.272;6.554;2022-09-17T09:44:16;14.30;99.90
4701;DHT22;8724;51.272;6.554;2022-09-17T09:47:21;14.30;99.90
4701;DHT22;8724;51.272;6.554;2022-09-17T09:50:04;14.30;99.90
4701;DHT22;8724;51.272;6.554;2022-09-17T09:52:44;14.40;99.90
4701;DHT22;8724;51.272;6.554;2022-09-17T09:55:28;14.40;99.90
4701;DHT22;8724;51.272;6.554;2022-09-17T09:58:04;14.80;99.90
4701;DHT22;8724;51.272;6.554;2022-09-17T10:00:39;14.40;99.90
4701;DHT22;8724;51.272;6.554;2022-09-17T10:03:13;14.40;99.90
4701;DHT22;8724;51.272;6.554;2022-09-17T10:05:52;14.40;99.90
4701;DHT22;8724;51.272;6.554;2022-09-17T10:08:20;14.40;99.90
4701;DHT22;8724;51.272;6.554;2022-09-17T10:11:00;14.40;99.90
4701;DHT22;8724;51.272;6.554;2022-09-17T10:13:32;14.40;99.90
4701;DHT22;8724;51.272;6.554;2022-09-17T10:16:16;14.40;99.90
4701;DHT22;8724;51.272;6.554;2022-09-17T10:18:45;14.50;99.90
4701;DHT22;8724;51.272;6.554;2022-09-17T10:21:18;14.40;99.90
4701;DHT22;8724;51.272;6.554;2022-09-17T10:23:48;14.50;99.90
4701;DHT22;8724;51.272;6.554;2022-09-17T10:26:21;14.50;99.90
4701;DHT22;8724;51.272;6.554;2022-09-17T10:28:52;14.60;99.90
4701;DHT22;8724;51.272;6.554;2022-09-17T10:31:22;14.60;99.90
4701;DHT22;8724;51.272;6.554;2022-09-17T10:33:55;14.60;99.90
4701;DHT22;8724;51.272;6.554;2022-09-17T10:36:38;14.60;99.90
4701;DHT22;8724;51.272;6.554;2022-09-17T10:39:28;14.70;99.90
4701;DHT22;8724;51.272;6.554;2022-09-17T10:41:58;14.60;99.90
4701;DHT22;8724;51.272;6.554;2022-09-17T10:44:28;14.60;99.90
4701;DHT22;8724;51.272;6.554;2022-09-17T10:47:11;14.70;99.90
4701;DHT22;8724;51.272;6.554;2022-09-17T10:49:41;14.60;99.90
4701;DHT22;8724;51.272;6.554;2022-09-17T10:52:18;14.70;99.90
4701;DHT22;8724;51.272;6.554;2022-09-17T10:55:06;14.70;99.90
4701;DHT22;8724;51.272;6.554;2022-09-17T10:58:03;14.70;99.90
4701;DHT22;8724;51.272;6.554;2022-09-17T11:00:43;14.80;99.90
4701;DHT22;8724;51.272;6.554;2022-09-17T11:09:29;14.80;99.90
4701;DHT22;8724;51.272;6.554;2022-09-17T11:12:12;15.20;99.90
4701;DHT22;8724;51.272;6.554;2022-09-17T11:14:54;14.70;99.90
4701;DHT22;8724;51.272;6.554;2022-09-17T11:17:36;14.40;99.90
4701;DHT22;8724;51.272;6.554;2022-09-17T11:20:20;14.20;99.90
4701;DHT22;8724;51.272;6.554;2022-09-17T11:23:00;14.00;99.90
4701;DHT22;8724;51.272;6.554;2022-09-17T11:25:42;13.90;99.90
4701;DHT22;8724;51.272;6.554;2022-09-17T11:28:25;13.80;99.90
4701;DHT22;8724;51.272;6.554;2022-09-17T11:31:04;13.80;99.90
4701;DHT22;8724;51.272;6.554;2022-09-17T11:33:55;13.80;99.90
4701;DHT22;8724;51.272;6.554;2022-09-17T11:36:29;13.80;99.90
4701;DHT22;8724;51.272;6.554;2022-09-17T11:39:12;13.90;99.90
4701;DHT22;8724;51.272;6.554;2022-09-17T11:41:42;13.80;99.90
4701;DHT22;8724;51.272;6.554;2022-09-17T11:44:16;13.90;99.90
4701;DHT22;8724;51.272;6.554;2022-09-17T11:46:51;14.20;99.90
4701;DHT22;8724;51.272;6.554;2022-09-17T11:49:25;14.00;99.90
4701;DHT22;8724;51.272;6.554;2022-09-17T11:51:59;14.20;99.90
4701;DHT22;8724;51.272;6.554;2022-09-17T11:54:31;14.10;99.90
4701;DHT22;8724;51.272;6.554;2022-09-17T11:57:05;14.10;99.90
4701;DHT22;8724;51.272;6.554;2022-09-17T11:59:41;14.20;99.90
4701;DHT22;8724;51.272;6.554;2022-09-17T12:02:18;14.30;99.90
4701;DHT22;8724;51.272;6.554;2022-09-17T12:04:54;14.30;99.90
4701;DHT22;8724;51.272;6.554;2022-09-17T12:07:34;14.30;99.90
4701;DHT22;8724;51.272;6.554;2022-09-17T12:13:15;14.40;99.90
4701;DHT22;8724;51.272;6.554;2022-09-17T12:15:47;14.80;99.90
4701;DHT22;8724;51.272;6.554;2022-09-17T12:18:34;14.60;99.90
4701;DHT22;8724;51.272;6.554;2022-09-17T12:21:07;14.70;99.90
4701;DHT22;8724;51.272;6.554;2022-09-17T12:23:42;14.80;99.90
4701;DHT22;8724;51.272;6.554;2022-09-17T12:26:23;15.10;99.90
4701;DHT22;8724;51.272;6.554;2022-09-17T12:29:02;14.60;99.90
4701;DHT22;8724;51.272;6.554;2022-09-17T12:31:39;14.50;99.90
4701;DHT22;8724;51.272;6.554;2022-09-17T12:34:23;14.40;99.90
4701;DHT22;8724;51.272;6.554;2022-09-17T12:36:59;14.30;99.90
4701;DHT22;8724;51.272;6.554;2022-09-17T12:39:51;14.20;99.90
4701;DHT22;8724;51.272;6.554;2022-09-17T12:42:34;14.20;99.90
4701;DHT22;8724;51.272;6.554;2022-09-17T12:45:26;14.30;99.90
4701;DHT22;8724;51.272;6.554;2022-09-17T12:48:10;14.30;99.90
4701;DHT22;8724;51.272;6.554;2022-09-17T12:50:53;14.20;99.90
4701;DHT22;8724;51.272;6.554;2022-09-17T12:53:29;14.20;99.90
4701;DHT22;8724;51.272;6.554;2022-09-17T12:56:08;14.20;99.90
4701;DHT22;8724;51.272;6.554;2022-09-17T12:59:07;14.20;99.90
4701;DHT22;8724;51.272;6.554;2022-09-17T13:01:44;14.20;99.90
4701;DHT22;8724;51.272;6.554;2022-09-17T13:04:27;14.20;99.90
4701;DHT22;8724;51.272;6.554;2022-09-17T13:07:38;14.30;99.90
4701;DHT22;8724;51.272;6.554;2022-09-17T13:10:34;14.30;99.90
4701;DHT22;8724;51.272;6.554;2022-09-17T13:13:21;14.30;99.90
4701;DHT22;8724;51.272;6.554;2022-09-17T13:15:57;14.40;99.90
4701;DHT22;8724;51.272;6.554;2022-09-17T13:18:31;14.40;99.90
4701;DHT22;8724;51.272;6.554;2022-09-17T13:21:05;14.60;99.90
4701;DHT22;8724;51.272;6.554;2022-09-17T13:23:43;14.50;99.90
4701;DHT22;8724;51.272;6.554;2022-09-17T13:26:14;14.90;99.90
4701;DHT22;8724;51.272;6.554;2022-09-17T13:28:47;14.90;99.90
4701;DHT22;8724;51.272;6.554;2022-09-17T13:31:20;14.70;99.90
4701;DHT22;8724;51.272;6.554;2022-09-17T13:33:51;14.70;99.90
4701;DHT22;8724;51.272;6.554;2022-09-17T13:36:41;14.90;99.90
4701;DHT22;8724;51.272;6.554;2022-09-17T13:42:00;14.80;99.90
4701;DHT22;8724;51.272;6.554;2022-09-17T13:44:33;14.90;99.90
4701;DHT22;8724;51.272;6.554;2022-09-17T13:47:16;15.00;99.90
4701;DHT22;8724;51.272;6.554;2022-09-17T13:49:49;14.90;99.90
4701;DHT22;8724;51.272;6.554;2022-09-17T13:52:34;14.90;99.90
4701;DHT22;8724;51.272;6.554;2022-09-17T13:55:04;14.80;99.90
4701;DHT22;8724;51.272;6.554;2022-09-17T13:57:45;14.80;99.90
4701;DHT22;8724;51.272;6.554;2022-09-17T14:00:48;14.80;99.90
4701;DHT22;8724;51.272;6.554;2022-09-17T14:03:53;14.80;99.90
4701;DHT22;8724;51.272;6.554;2022-09-17T14:06:50;14.70;99.90
4701;DHT22;8724;51.272;6.554;2022-09-17T14:09:50;14.70;99.90
4701;DHT22;8724;51.272;6.554;2022-09-17T14:12:57;14.70;99.90
4701;DHT22;8724;51.272;6.554;2022-09-17T14:15:36;14.70;99.90
4701;DHT22;8724;51.272;6.554;2022-09-17T14:18:42;14.70;99.90
4701;DHT22;8724;51.272;6.554;2022-09-17T14:21:20;14.70;99.90
4701;DHT22;8724;51.272;6.554;2022-09-17T14:23:55;15.00;99.90
4701;DHT22;8724;51.272;6.554;2022-09-17T14:26:47;14.80;99.90
4701;DHT22;8724;51.272;6.554;2022-09-17T14:29:29;15.10;99.90
4701;DHT22;8724;51.272;6.554;2022-09-17T14:32:00;15.00;99.90
4701;DHT22;8724;51.272;6.554;2022-09-17T14:34:30;15.00;99.90
4701;DHT22;8724;51.272;6.554;2022-09-17T14:36:59;15.00;99.90
4701;DHT22;8724;51.272;6.554;2022-09-17T14:39:34;15.10;99.90
4701;DHT22;8724;51.272;6.554;2022-09-17T14:42:04;15.10;99.90
4701;DHT22;8724;51.272;6.554;2022-09-17T14:44:34;15.10;99.90
4701;DHT22;8724;51.272;6.554;2022-09-17T14:47:05;15.10;99.90
4701;DHT22;8724;51.272;6.554;2022-09-17T14:49:38;15.20;99.90
4701;DHT22;8724;51.272;6.554;2022-09-17T14:52:22;15.20;99.90
4701;DHT22;8724;51.272;6.554;2022-09-17T14:55:14;15.20;99.90
4701;DHT22;8724;51.272;6.554;2022-09-17T14:57:44;15.30;99.90
4701;DHT22;8724;51.272;6.554;2022-09-17T15:00:19;15.30;99.90
4701;DHT22;8724;51.272;6.554;2022-09-17T15:02:53;15.30;99.90
4701;DHT22;8724;51.272;6.554;2022-09-17T15:05:28;15.30;99.90
4701;DHT22;8724;51.272;6.554;2022-09-17T15:08:13;15.20;99.90
4701;DHT22;8724;51.272;6.554;2022-09-17T15:10:47;15.20;99.90
4701;DHT22;8724;51.272;6.554;2022-09-17T15:13:20;15.20;99.90
4701;DHT22;8724;51.272;6.554;2022-09-17T15:15:54;15.10;99.90
4701;DHT22;8724;51.272;6.554;2022-09-17T15:18:36;15.00;99.90
4701;DHT22;8724;51.272;6.554;2022-09-17T15:21:18;15.00;99.90
4701;DHT22;8724;51.272;6.554;2022-09-17T15:23:52;15.00;99.90
4701;DHT22;8724;51.272;6.554;2022-09-17T15:26:27;15.00;99.90
4701;DHT22;8724;51.272;6.554;2022-09-17T15:28:57;15.10;99.90
4701;DHT22;8724;51.272;6.554;2022-09-17T15:31:27;15.10;99.90
4701;DHT22;8724;51.272;6.554;2022-09-17T15:33:58;15.10;99.90
4701;DHT22;8724;51.272;6.554;2022-09-17T15:36:28;15.20;99.90
4701;DHT22;8724;51.272;6.554;2022-09-17T15:38:57;15.20;99.90
4701;DHT22;8724;51.272;6.554;2022-09-17T15:41:32;15.20;99.90
4701;DHT22;8724;51.272;6.554;2022-09-17T15:44:07;15.20;99.90
4701;DHT22;8724;51.272;6.554;2022-09-17T15:47:17;15.20;99.90
4701;DHT22;8724;51.272;6.554;2022-09-17T15:50:09;15.30;99.90
4701;DHT22;8724;51.272;6.554;2022-09-17T15:52:41;15.30;99.90
4701;DHT22;8724;51.272;6.554;2022-09-17T15:55:29;15.20;99.90
4701;DHT22;8724;51.272;6.554;2022-09-17T15:57:58;15.20;99.90
4701;DHT22;8724;51.272;6.554;2022-09-17T16:00:27;15.20;99.90
4701;DHT22;8724;51.272;6.554;2022-09-17T16:02:56;15.20;99.90
4701;DHT22;8724;51.272;6.554;2022-09-17T16:05:48;15.10;99.90
4701;DHT22;8724;51.272;6.554;2022-09-17T16:08:33;15.10;99.90
4701;DHT22;8724;51.272;6.554;2022-09-17T16:11:01;15.00;99.90
4701;DHT22;8724;51.272;6.554;2022-09-17T16:13:29;15.00;99.90
4701;DHT22;8724;51.272;6.554;2022-09-17T16:15:58;15.00;99.90
4701;DHT22;8724;51.272;6.554;2022-09-17T16:18:26;15.30;99.90
4701;DHT22;8724;51.272;6.554;2022-09-17T16:20:54;15.00;99.90
4701;DHT22;8724;51.272;6.554;2022-09-17T16:23:24;15.00;99.90
4701;DHT22;8724;51.272;6.554;2022-09-17T16:25:52;15.10;99.90
4701;DHT22;8724;51.272;6.554;2022-09-17T16:28:20;15.00;99.90
4701;DHT22;8724;51.272;6.554;2022-09-17T16:30:49;15.10;99.90
4701;DHT22;8724;51.272;6.554;2022-09-17T16:33:17;15.00;99.90
4701;DHT22;8724;51.272;6.554;2022-09-17T16:35:46;15.00;99.90
4701;DHT22;8724;51.272;6.554;2022-09-17T16:38:14;15.10;99.90
4701;DHT22;8724;51.272;6.554;2022-09-17T16:40:44;15.00;99.90
4701;DHT22;8724;51.272;6.554;2022-09-17T16:43:13;15.00;99.90
4701;DHT22;8724;51.272;6.554;2022-09-17T16:45:42;15.00;99.90
4701;DHT22;8724;51.272;6.554;2022-09-17T16:48:10;15.00;99.90
4701;DHT22;8724;51.272;6.554;2022-09-17T16:50:38;15.00;99.90
4701;DHT22;8724;51.272;6.554;2022-09-17T16:53:08;15.00;99.90
4701;DHT22;8724;51.272;6.554;2022-09-17T16:55:37;15.00;99.90
4701;DHT22;8724;51.272;6.554;2022-09-17T16:58:07;15.00;99.90
4701;DHT22;8724;51.272;6.554;2022-09-17T17:00:35;14.90;99.90
4701;DHT22;8724;51.272;6.554;2022-09-17T17:03:04;14.80;99.90
4701;DHT22;8724;51.272;6.554;2022-09-17T17:05:35;14.80;99.90
4701;DHT22;8724;51.272;6.554;2022-09-17T17:08:04;14.90;99.90
4701;DHT22;8724;51.272;6.554;2022-09-17T17:10:33;14.90;99.90
4701;DHT22;8724;51.272;6.554;2022-09-17T17:13:01;14.90;99.90
4701;DHT22;8724;51.272;6.554;2022-09-17T17:15:31;14.90;99.90
4701;DHT22;8724;51.272;6.554;2022-09-17T17:17:59;15.00;99.90
4701;DHT22;8724;51.272;6.554;2022-09-17T17:20:27;14.90;99.90
4701;DHT22;8724;51.272;6.554;2022-09-17T17:22:57;14.90;99.90
4701;DHT22;8724;51.272;6.554;2022-09-17T17:25:25;14.90;99.90
4701;DHT22;8724;51.272;6.554;2022-09-17T17:27:54;15.00;99.90
4701;DHT22;8724;51.272;6.554;2022-09-17T17:30:22;15.00;99.90